Terminal Aerodrome Forecast
Issued by NWS Wakefield, VA

Home | Current Version | Previous Version | Text Only | Print | Product List | Glossary On
Versions: 1 2 3 4 5 6 7 8 9 10 11 12 13 14 15 16
000
FTUS41 KAKQ 240539
TAFECG
TAF
KECG 240539Z 2406/2506 16011G17KT P6SM SKC
     FM240700 17015G23KT P6SM VCSH OVC050
     FM240900 17016G24KT 4SM SHRA OVC045
     FM241300 19014G21KT 6SM -SHRA OVC020
     FM241600 19014G21KT P6SM VCSH SCT025 BKN035
     FM241800 20014G21KT P6SM BKN050
     FM250000 20008KT P6SM SCT150=

USA.gov is the U.S. government's official web portal to all federal, state and local government web resources and services.